createdAt,value
2023-05-05T00:01:04.280Z,4.05
2023-05-05T00:03:35.582Z,3.55
2023-05-05T00:08:34.080Z,3.80
2023-05-05T00:11:05.156Z,4.28
2023-05-05T00:13:36.091Z,4.13
2023-05-05T00:16:05.342Z,3.70
2023-05-05T00:18:35.586Z,3.80
2023-05-05T00:21:04.469Z,4.10
2023-05-05T00:23:32.825Z,4.25
2023-05-05T00:26:01.220Z,4.50
2023-05-05T00:28:29.399Z,4.60
2023-05-05T00:30:57.672Z,4.15
2023-05-05T00:33:26.045Z,4.15
2023-05-05T00:35:56.258Z,4.85
2023-05-05T00:38:26.240Z,4.60
2023-05-05T00:40:55.328Z,4.70
2023-05-05T00:43:23.982Z,4.88
2023-05-05T00:45:58.490Z,4.28
2023-05-05T00:48:27.788Z,4.80
2023-05-05T00:51:00.382Z,4.53
2023-05-05T00:53:29.116Z,4.55
2023-05-05T00:55:59.792Z,4.65
2023-05-05T00:58:29.211Z,4.68
2023-05-05T01:00:57.268Z,4.35
2023-05-05T01:03:36.042Z,4.70
2023-05-05T01:06:16.011Z,4.38
2023-05-05T01:08:53.463Z,4.45
2023-05-05T01:11:27.354Z,4.65
2023-05-05T01:14:02.578Z,3.92
2023-05-05T01:16:37.340Z,4.70
2023-05-05T01:19:15.608Z,4.60
2023-05-05T01:21:50.387Z,5.07
2023-05-05T01:24:47.123Z,4.50
2023-05-05T01:27:43.144Z,4.70
2023-05-05T01:30:21.892Z,4.22
2023-05-05T01:32:55.232Z,4.65
2023-05-05T01:35:30.575Z,4.47
2023-05-05T01:38:04.826Z,4.20
2023-05-05T01:40:39.122Z,4.05
2023-05-05T01:43:09.746Z,4.68
2023-05-05T01:45:40.133Z,4.97
2023-05-05T01:48:15.677Z,4.65
2023-05-05T01:50:46.555Z,4.80
2023-05-05T01:53:14.893Z,5.18
2023-05-05T01:55:44.077Z,4.35
2023-05-05T01:58:15.037Z,4.78
2023-05-05T02:00:44.326Z,5.03
2023-05-05T02:03:17.519Z,4.55
2023-05-05T02:05:48.383Z,5.18
2023-05-05T02:08:16.825Z,4.63
2023-05-05T02:10:46.046Z,4.63
2023-05-05T02:13:19.075Z,5.30
2023-05-05T02:15:48.175Z,4.70
2023-05-05T02:18:19.654Z,5.20
2023-05-05T02:20:49.148Z,5.22
2023-05-05T02:23:17.514Z,5.55
2023-05-05T02:25:54.011Z,5.30
2023-05-05T02:28:26.677Z,5.32
2023-05-05T02:30:58.628Z,5.68
2023-05-05T02:33:31.094Z,5.07
2023-05-05T02:36:10.206Z,5.40
2023-05-05T02:38:43.007Z,6.25
2023-05-05T02:43:43.898Z,5.80
2023-05-05T02:46:13.445Z,6.15
2023-05-05T02:48:47.064Z,6.03
2023-05-05T02:51:15.132Z,5.90
2023-05-05T02:53:49.229Z,6.22
2023-05-05T02:56:25.696Z,6.00
2023-05-05T02:59:09.288Z,5.78
2023-05-05T03:01:47.312Z,6.10
2023-05-05T03:04:24.665Z,5.78
2023-05-05T03:06:59.117Z,6.75
2023-05-05T03:09:34.781Z,6.95
2023-05-05T03:12:05.964Z,6.22
2023-05-05T03:14:46.886Z,6.40
2023-05-05T03:17:18.933Z,7.07
2023-05-05T03:19:49.819Z,6.90
2023-05-05T03:22:21.197Z,6.38
2023-05-05T03:24:51.422Z,6.50
2023-05-05T03:27:23.206Z,6.55
2023-05-05T03:29:52.613Z,6.15
2023-05-05T03:32:23.651Z,6.53
2023-05-05T03:34:56.711Z,6.25
2023-05-05T03:37:31.000Z,6.85
2023-05-05T03:40:00.974Z,6.30
2023-05-05T03:42:29.887Z,7.18
2023-05-05T03:44:58.601Z,6.38
2023-05-05T03:47:27.164Z,6.70
2023-05-05T03:50:00.424Z,6.65
2023-05-05T03:52:31.100Z,7.32
2023-05-05T03:55:00.539Z,7.32
2023-05-05T03:57:29.305Z,6.88
2023-05-05T03:59:59.131Z,7.05
2023-05-05T04:02:29.198Z,7.25
2023-05-05T04:04:59.213Z,7.85
2023-05-05T04:07:28.885Z,7.65
2023-05-05T04:09:59.963Z,7.13
2023-05-05T04:12:29.236Z,7.43
2023-05-05T04:14:59.085Z,7.45
2023-05-05T04:17:27.242Z,8.27
2023-05-05T04:19:56.628Z,7.57
2023-05-05T04:22:29.855Z,7.35
2023-05-05T04:24:57.981Z,7.70
2023-05-05T04:27:29.080Z,6.10
2023-05-05T04:29:58.638Z,6.63
2023-05-05T04:32:27.211Z,6.93
2023-05-05T04:34:56.019Z,7.65
2023-05-05T04:37:25.220Z,6.85
2023-05-05T04:39:55.337Z,7.57
2023-05-05T04:42:24.289Z,7.30
2023-05-05T04:44:52.596Z,7.90
2023-05-05T04:47:21.039Z,7.63
2023-05-05T04:49:49.733Z,7.60
2023-05-05T04:52:18.609Z,7.95
2023-05-05T04:54:47.321Z,7.60
2023-05-05T04:57:19.670Z,8.00
2023-05-05T04:59:47.895Z,7.90
2023-05-05T05:02:17.318Z,7.28
2023-05-05T05:04:45.598Z,7.65
2023-05-05T05:07:17.384Z,8.43
2023-05-05T05:09:45.753Z,7.03
2023-05-05T05:12:18.098Z,7.70
2023-05-05T05:14:49.449Z,8.13
2023-05-05T05:17:17.769Z,7.75
2023-05-05T05:19:46.258Z,6.93
2023-05-05T05:22:15.144Z,7.55
2023-05-05T05:24:53.576Z,7.80
2023-05-05T05:27:23.152Z,7.75
2023-05-05T05:29:57.210Z,8.15
2023-05-05T05:32:26.772Z,7.95
2023-05-05T05:34:54.982Z,8.15
2023-05-05T05:37:25.499Z,7.82
2023-05-05T05:39:55.659Z,8.27
2023-05-05T05:42:25.249Z,8.70
2023-05-05T05:44:56.964Z,8.35
2023-05-05T05:47:26.772Z,7.72
2023-05-05T05:49:55.596Z,7.38
2023-05-05T05:52:24.702Z,7.45
2023-05-05T05:54:53.409Z,7.22
2023-05-05T05:57:23.683Z,7.28
2023-05-05T05:59:54.976Z,6.32
2023-05-05T06:02:26.418Z,6.72
2023-05-05T06:04:55.074Z,6.38
2023-05-05T06:07:24.671Z,6.38
2023-05-05T06:09:55.450Z,6.35
2023-05-05T06:12:23.601Z,6.63
2023-05-05T06:14:55.469Z,7.05
2023-05-05T06:17:25.689Z,7.40
2023-05-05T06:19:54.604Z,7.32
2023-05-05T06:22:23.475Z,6.50
2023-05-05T06:24:54.281Z,7.13
2023-05-05T06:27:24.429Z,7.30
2023-05-05T06:29:53.773Z,6.78
2023-05-05T06:32:22.047Z,8.50
2023-05-05T06:34:51.972Z,9.23
2023-05-05T06:37:20.447Z,7.78
2023-05-05T06:39:48.923Z,8.40
2023-05-05T06:42:17.229Z,7.28
2023-05-05T06:44:46.966Z,8.80
2023-05-05T06:47:15.511Z,9.90
2023-05-05T06:49:43.840Z,9.80
2023-05-05T06:52:14.815Z,10.05
2023-05-05T06:54:45.306Z,9.85
2023-05-05T06:57:13.486Z,11.00
2023-05-05T06:59:42.098Z,8.95
2023-05-05T07:02:10.938Z,10.60
2023-05-05T07:04:41.403Z,9.70
2023-05-05T07:07:11.973Z,11.02
2023-05-05T07:09:41.664Z,11.45
2023-05-05T07:12:10.704Z,11.13
2023-05-05T07:14:40.053Z,12.60
2023-05-05T07:17:09.119Z,11.35
2023-05-05T07:19:37.601Z,12.30
2023-05-05T07:22:06.092Z,11.32
2023-05-05T07:24:34.354Z,11.32
2023-05-05T07:27:04.434Z,11.25
2023-05-05T07:29:33.719Z,12.20
2023-05-05T07:32:04.944Z,11.25
2023-05-05T07:34:34.540Z,10.88
2023-05-05T07:37:04.018Z,10.75
2023-05-05T07:39:35.051Z,9.90
2023-05-05T07:42:07.633Z,10.68
2023-05-05T07:44:35.872Z,10.57
2023-05-05T07:47:04.436Z,9.15
2023-05-05T07:49:34.072Z,9.80
2023-05-05T07:52:02.383Z,9.25
2023-05-05T07:54:30.888Z,9.93
2023-05-05T07:57:00.068Z,10.07
2023-05-05T07:59:31.811Z,8.50
2023-05-05T08:01:59.990Z,7.70
2023-05-05T08:04:28.096Z,6.80
2023-05-05T08:06:56.208Z,5.82
2023-05-05T08:09:27.027Z,5.63
2023-05-05T08:11:55.578Z,5.72
2023-05-05T08:14:24.298Z,6.40
2023-05-05T08:16:54.341Z,6.30
2023-05-05T08:19:29.391Z,6.78
2023-05-05T08:22:01.063Z,5.90
2023-05-05T08:24:30.860Z,6.82
2023-05-05T08:26:59.099Z,5.70
2023-05-05T08:29:27.798Z,6.20
2023-05-05T08:31:57.666Z,6.28
2023-05-05T08:34:29.571Z,6.25
2023-05-05T08:36:57.695Z,5.68
2023-05-05T08:39:27.374Z,5.53
2023-05-05T08:41:56.185Z,5.00
2023-05-05T08:44:28.870Z,4.20
2023-05-05T08:47:03.654Z,4.20
2023-05-05T08:49:41.176Z,5.03
2023-05-05T08:52:11.652Z,5.30
2023-05-05T08:54:49.157Z,4.82
2023-05-05T08:57:21.245Z,4.35
2023-05-05T08:59:53.006Z,4.40
2023-05-05T09:02:28.032Z,4.85
2023-05-05T09:04:56.274Z,4.25
2023-05-05T09:07:27.078Z,4.95
2023-05-05T09:09:55.312Z,4.65
2023-05-05T09:12:25.303Z,3.95
2023-05-05T09:14:59.419Z,4.10
2023-05-05T09:17:29.465Z,4.00
2023-05-05T09:20:07.226Z,4.53
2023-05-05T09:22:38.458Z,4.20
2023-05-05T09:25:08.209Z,3.35
2023-05-05T09:27:41.843Z,4.55
2023-05-05T09:30:16.090Z,3.70
2023-05-05T09:32:58.590Z,3.35
2023-05-05T09:37:56.872Z,3.72
2023-05-05T09:40:25.220Z,4.40
2023-05-05T09:43:02.578Z,4.15
2023-05-05T09:45:30.887Z,3.70
2023-05-05T09:48:01.129Z,3.60
2023-05-05T09:50:32.644Z,3.58
2023-05-05T09:53:02.265Z,4.00
2023-05-05T09:55:32.108Z,3.60
2023-05-05T09:58:19.563Z,3.90
2023-05-05T10:00:48.283Z,4.03
2023-05-05T10:03:19.700Z,4.43
2023-05-05T10:05:52.374Z,4.32
2023-05-05T10:08:21.944Z,3.40
2023-05-05T10:10:56.452Z,3.47
2023-05-05T10:13:26.634Z,3.80
2023-05-05T10:15:55.849Z,3.30
2023-05-05T10:18:33.853Z,4.30
2023-05-05T10:21:03.173Z,3.80
2023-05-05T10:23:40.152Z,3.75
2023-05-05T10:26:11.634Z,3.67
2023-05-05T10:28:46.604Z,4.22
2023-05-05T10:31:25.760Z,4.40
2023-05-05T10:34:03.293Z,3.00
2023-05-05T10:36:32.532Z,3.00
2023-05-05T10:39:01.771Z,2.88
2023-05-05T10:41:30.829Z,2.20
2023-05-05T10:44:02.876Z,2.85
2023-05-05T10:46:32.821Z,3.70
2023-05-05T10:51:45.404Z,5.70
2023-05-05T10:54:18.514Z,7.45
2023-05-05T10:56:49.624Z,4.60
2023-05-05T10:59:47.265Z,2.88
2023-05-05T11:02:26.364Z,2.22
2023-05-05T11:05:18.706Z,1.70
2023-05-05T11:07:47.708Z,1.58
2023-05-05T11:10:19.034Z,1.98
2023-05-05T11:13:18.988Z,1.50
2023-05-05T11:15:49.019Z,1.20
2023-05-05T11:18:33.906Z,1.40
2023-05-05T11:21:19.201Z,1.42
2023-05-05T11:23:51.762Z,1.77
2023-05-05T11:26:49.911Z,1.30
2023-05-05T11:29:19.500Z,1.52
2023-05-05T11:31:48.936Z,1.10
2023-05-05T11:34:29.027Z,1.40
2023-05-05T11:37:04.051Z,1.20
2023-05-05T11:39:46.683Z,1.30
2023-05-05T11:42:24.981Z,1.58
2023-05-05T11:44:54.636Z,1.20
2023-05-05T11:47:34.895Z,1.13
2023-05-05T11:50:21.019Z,0.98
2023-05-05T11:52:51.037Z,1.30
2023-05-05T11:55:23.415Z,1.20
2023-05-05T12:00:20.193Z,1.77
2023-05-05T12:02:48.309Z,1.73
2023-05-05T12:05:21.799Z,2.17
2023-05-05T12:07:58.378Z,1.70
2023-05-05T12:10:26.825Z,2.28
2023-05-05T12:12:56.479Z,2.15
2023-05-05T12:15:33.582Z,2.20
2023-05-05T12:18:03.296Z,2.45
2023-05-05T12:20:36.535Z,2.53
2023-05-05T12:23:07.660Z,2.30
2023-05-05T12:25:39.339Z,2.40
2023-05-05T12:28:12.413Z,2.13
2023-05-05T12:30:41.509Z,2.40
2023-05-05T12:33:13.390Z,2.90
2023-05-05T12:38:15.954Z,2.70
2023-05-05T12:40:48.365Z,2.03
2023-05-05T12:46:08.921Z,2.30
2023-05-05T12:51:18.536Z,1.98
2023-05-05T12:53:48.706Z,2.15
2023-05-05T12:56:33.616Z,3.00
2023-05-05T12:59:05.070Z,1.92
2023-05-05T13:01:36.298Z,1.83
2023-05-05T13:04:11.911Z,1.90
2023-05-05T13:06:41.046Z,1.77
2023-05-05T13:09:11.138Z,1.48
2023-05-05T13:11:39.931Z,1.77
2023-05-05T13:14:09.535Z,1.63
2023-05-05T13:16:39.225Z,2.10
2023-05-05T13:19:07.642Z,1.52
2023-05-05T13:21:36.088Z,1.25
2023-05-05T13:24:21.453Z,1.40
2023-05-05T13:26:58.490Z,1.65
2023-05-05T13:29:31.412Z,1.60
2023-05-05T13:32:03.546Z,1.65
2023-05-05T13:34:32.949Z,1.53
2023-05-05T13:37:04.608Z,1.75
2023-05-05T13:39:38.092Z,1.42
2023-05-05T13:42:08.469Z,1.45
2023-05-05T13:44:36.577Z,1.40
2023-05-05T13:47:08.321Z,1.50
2023-05-05T13:49:36.393Z,1.65
2023-05-05T13:52:06.050Z,1.65
2023-05-05T13:54:34.054Z,1.60
2023-05-05T13:57:03.359Z,1.60
2023-05-05T13:59:33.306Z,1.63
2023-05-05T14:02:05.972Z,1.58
2023-05-05T14:04:37.425Z,1.75
2023-05-05T14:07:08.313Z,1.60
2023-05-05T14:09:36.563Z,1.77
2023-05-05T14:12:06.338Z,2.03
2023-05-05T14:14:36.019Z,2.10
2023-05-05T14:17:04.098Z,2.05
2023-05-05T14:19:32.636Z,1.70
2023-05-05T14:22:01.879Z,1.60
2023-05-05T14:24:30.194Z,1.00
2023-05-05T14:26:59.365Z,1.35
2023-05-05T14:29:27.739Z,1.27
2023-05-05T14:31:57.453Z,0.95
2023-05-05T14:34:27.512Z,1.48
2023-05-05T14:36:57.551Z,1.00
2023-05-05T14:39:26.040Z,1.20
2023-05-05T14:41:54.016Z,1.00
2023-05-05T14:44:26.605Z,0.90
2023-05-05T14:46:58.150Z,1.10
2023-05-05T14:49:26.183Z,1.60
2023-05-05T14:51:56.113Z,1.30
2023-05-05T14:54:28.705Z,1.08
2023-05-05T14:56:58.495Z,1.23
2023-05-05T14:59:27.380Z,1.20
2023-05-05T15:01:58.150Z,1.45
2023-05-05T15:04:26.281Z,1.33
2023-05-05T15:06:55.694Z,1.60
2023-05-05T15:09:24.094Z,1.20
2023-05-05T15:11:53.502Z,1.50
2023-05-05T15:14:21.751Z,1.50
2023-05-05T15:16:49.805Z,1.20
2023-05-05T15:19:19.441Z,1.70
2023-05-05T15:21:52.984Z,1.70
2023-05-05T15:24:21.797Z,1.70
2023-05-05T15:26:50.227Z,1.35
2023-05-05T15:29:18.598Z,1.25
2023-05-05T15:31:46.643Z,1.20
2023-05-05T15:34:14.893Z,1.27
2023-05-05T15:36:44.296Z,1.42
2023-05-05T15:39:12.290Z,2.20
2023-05-05T15:41:40.434Z,1.10
2023-05-05T15:44:09.252Z,0.90
2023-05-05T15:46:40.602Z,1.27
2023-05-05T15:49:08.754Z,1.00
2023-05-05T15:51:36.952Z,0.90
2023-05-05T15:54:06.720Z,1.13
2023-05-05T15:56:34.854Z,1.10
2023-05-05T15:59:05.137Z,1.20
2023-05-05T16:01:36.935Z,1.15
2023-05-05T16:04:06.140Z,1.40
2023-05-05T16:06:34.683Z,1.02
2023-05-05T16:09:37.515Z,1.10
2023-05-05T16:12:06.505Z,0.90
2023-05-05T16:14:36.469Z,1.15
2023-05-05T16:17:04.819Z,0.98
2023-05-05T16:19:33.013Z,0.93
2023-05-05T16:22:01.457Z,1.05
2023-05-05T16:24:31.010Z,1.10
2023-05-05T16:26:59.398Z,1.52
2023-05-05T16:29:27.646Z,0.80
2023-05-05T16:31:56.259Z,1.05
2023-05-05T16:34:25.720Z,0.90
2023-05-05T16:36:57.937Z,1.13
2023-05-05T16:39:28.761Z,0.80
2023-05-05T16:41:58.693Z,0.90
2023-05-05T16:44:26.970Z,0.88
2023-05-05T16:46:56.749Z,1.02
2023-05-05T16:49:25.203Z,1.05
2023-05-05T16:51:53.665Z,0.80
2023-05-05T16:54:21.770Z,1.20
2023-05-05T16:56:49.791Z,0.80
2023-05-05T16:59:19.727Z,1.08
2023-05-05T17:01:48.082Z,1.02
2023-05-05T17:04:16.380Z,0.90
2023-05-05T17:06:45.860Z,0.90
2023-05-05T17:09:14.152Z,1.05
2023-05-05T17:11:42.651Z,1.13
2023-05-05T17:14:14.264Z,1.05
2023-05-05T17:16:44.048Z,2.17
2023-05-05T17:19:12.346Z,1.50
2023-05-05T17:21:46.374Z,1.40
2023-05-05T17:24:16.035Z,1.20
2023-05-05T17:26:45.468Z,1.10
2023-05-05T17:29:22.221Z,0.98
2023-05-05T17:31:51.712Z,0.60
2023-05-05T17:34:19.919Z,1.08
2023-05-05T17:36:51.131Z,0.90
2023-05-05T17:39:22.624Z,0.70
2023-05-05T17:41:52.321Z,0.60
2023-05-05T17:44:20.653Z,0.40
2023-05-05T17:46:51.458Z,0.60
2023-05-05T17:49:21.527Z,0.75
2023-05-05T17:51:50.077Z,0.93
2023-05-05T17:54:18.584Z,1.17
2023-05-05T17:56:46.992Z,0.90
2023-05-05T17:59:15.074Z,1.20
2023-05-05T18:01:43.953Z,1.40
2023-05-05T18:04:14.231Z,1.30
2023-05-05T18:06:42.986Z,1.25
2023-05-05T18:09:16.271Z,0.90
2023-05-05T18:11:44.776Z,1.00
2023-05-05T18:14:14.666Z,1.08
2023-05-05T18:16:47.631Z,0.80
2023-05-05T18:19:20.778Z,0.90
2023-05-05T18:21:48.953Z,1.23
2023-05-05T18:24:20.584Z,0.98
2023-05-05T18:26:50.320Z,1.55
2023-05-05T18:29:18.468Z,1.27
2023-05-05T18:31:51.563Z,1.30
2023-05-05T18:34:24.064Z,4.80
2023-05-05T18:36:54.488Z,8.15
2023-05-05T18:39:22.992Z,3.22
2023-05-05T18:41:51.212Z,14.07
2023-05-05T18:44:19.564Z,19.35
2023-05-05T18:46:51.179Z,8.38
2023-05-05T18:49:19.869Z,2.20
2023-05-05T18:51:49.725Z,2.35
2023-05-05T18:54:21.678Z,1.80
2023-05-05T18:56:49.683Z,1.42
2023-05-05T18:59:18.523Z,2.00
2023-05-05T19:01:46.964Z,1.23
2023-05-05T19:04:30.165Z,1.75
2023-05-05T19:07:02.120Z,1.17
2023-05-05T19:09:32.619Z,1.80
2023-05-05T19:12:02.382Z,1.50
2023-05-05T19:14:31.015Z,1.77
2023-05-05T19:17:00.130Z,1.90
2023-05-05T19:19:30.889Z,1.70
2023-05-05T19:21:59.998Z,1.55
2023-05-05T19:24:31.537Z,1.50
2023-05-05T19:27:00.125Z,1.15
2023-05-05T19:29:31.007Z,1.60
2023-05-05T19:31:59.152Z,1.23
2023-05-05T19:34:27.774Z,1.55
2023-05-05T19:36:56.258Z,1.27
2023-05-05T19:39:24.507Z,1.30
2023-05-05T19:41:54.406Z,1.80
2023-05-05T19:44:23.899Z,1.52
2023-05-05T19:46:53.021Z,1.60
2023-05-05T19:49:21.324Z,1.50
2023-05-05T19:51:50.312Z,2.00
2023-05-05T19:54:18.967Z,2.60
2023-05-05T19:56:47.505Z,1.90
2023-05-05T19:59:21.281Z,1.70
2023-05-05T20:01:49.603Z,1.63
2023-05-05T20:04:18.322Z,1.63
2023-05-05T20:06:48.600Z,1.75
2023-05-05T20:09:20.438Z,1.38
2023-05-05T20:11:48.948Z,1.83
2023-05-05T20:14:17.711Z,1.95
2023-05-05T20:16:47.861Z,2.00
2023-05-05T20:19:23.140Z,1.60
2023-05-05T20:21:51.209Z,1.70
2023-05-05T20:24:19.844Z,1.90
2023-05-05T20:26:50.220Z,2.00
2023-05-05T20:29:19.708Z,2.30
2023-05-05T20:31:49.598Z,2.15
2023-05-05T20:34:18.004Z,1.77
2023-05-05T20:36:46.111Z,1.92
2023-05-05T20:39:29.331Z,1.70
2023-05-05T20:41:57.444Z,2.00
2023-05-05T20:44:27.151Z,1.90
2023-05-05T20:46:56.753Z,2.10
2023-05-05T20:49:26.490Z,1.83
2023-05-05T20:51:54.660Z,1.88
2023-05-05T20:54:25.773Z,1.98
2023-05-05T20:56:58.083Z,2.45
2023-05-05T20:59:27.971Z,2.03
2023-05-05T21:01:58.361Z,2.35
2023-05-05T21:04:26.780Z,2.00
2023-05-05T21:06:55.092Z,2.30
2023-05-05T21:09:23.768Z,2.10
2023-05-05T21:11:52.271Z,2.17
2023-05-05T21:14:23.350Z,1.90
2023-05-05T21:16:51.854Z,2.45
2023-05-05T21:19:23.500Z,2.50
2023-05-05T21:21:51.707Z,2.60
2023-05-05T21:24:22.346Z,2.45
2023-05-05T21:26:53.764Z,2.90
2023-05-05T21:29:38.556Z,2.78
2023-05-05T21:32:08.735Z,2.90
2023-05-05T21:34:38.724Z,3.30
2023-05-05T21:37:11.944Z,2.88
2023-05-05T21:39:39.953Z,3.53
2023-05-05T21:42:08.602Z,3.03
2023-05-05T21:44:36.638Z,3.08
2023-05-05T21:47:06.199Z,3.10
2023-05-05T21:49:34.312Z,3.00
2023-05-05T21:52:03.956Z,2.50
2023-05-05T21:54:32.080Z,3.05
2023-05-05T21:57:00.208Z,3.30
2023-05-05T21:59:28.528Z,2.55
2023-05-05T22:01:57.932Z,3.60
2023-05-05T22:04:26.206Z,4.22
2023-05-05T22:06:54.516Z,3.78
2023-05-05T22:09:24.890Z,4.60
2023-05-05T22:11:53.410Z,5.07
2023-05-05T22:14:24.310Z,3.88
2023-05-05T22:16:53.389Z,4.20
2023-05-05T22:19:23.369Z,4.30
2023-05-05T22:21:52.103Z,4.07
2023-05-05T22:24:20.668Z,3.13
2023-05-05T22:26:50.499Z,3.20
2023-05-05T22:29:20.004Z,3.20
2023-05-05T22:31:48.352Z,3.80
2023-05-05T22:34:18.734Z,3.63
2023-05-05T22:36:47.021Z,3.83
2023-05-05T22:39:18.436Z,4.40
2023-05-05T22:41:54.628Z,5.40
2023-05-05T22:44:25.204Z,4.50
2023-05-05T22:46:53.649Z,5.38
2023-05-05T22:49:29.215Z,5.00
2023-05-05T22:52:05.003Z,4.55
2023-05-05T22:54:33.494Z,5.40
2023-05-05T22:57:09.730Z,5.55
2023-05-05T22:59:43.717Z,4.95
2023-05-05T23:02:13.525Z,4.80
2023-05-05T23:04:42.927Z,4.63
2023-05-05T23:07:11.704Z,5.20
2023-05-05T23:09:42.072Z,4.72
2023-05-05T23:12:12.956Z,4.93
2023-05-05T23:14:42.947Z,5.68
2023-05-05T23:17:11.148Z,4.88
2023-05-05T23:19:40.040Z,4.68
2023-05-05T23:22:08.495Z,5.05
2023-05-05T23:24:36.655Z,4.43
2023-05-05T23:27:04.884Z,4.10
2023-05-05T23:29:35.761Z,4.25
2023-05-05T23:32:03.803Z,4.10
2023-05-05T23:34:32.713Z,4.28
2023-05-05T23:37:02.945Z,4.97
2023-05-05T23:39:34.620Z,4.45
2023-05-05T23:42:02.642Z,4.63
2023-05-05T23:44:30.723Z,4.88
2023-05-05T23:47:00.059Z,4.22
2023-05-05T23:49:28.284Z,4.45
2023-05-05T23:52:01.733Z,4.50
2023-05-05T23:54:29.916Z,4.43
2023-05-05T23:56:58.890Z,4.55
2023-05-05T23:59:27.498Z,5.13
